ESOK

Karlstad Airport

Karlstad, Sweden
METAR ESOK 201320Z AUTO VRB03KT 9999 NCD 09/05 Q1022
Observed Flight Rules
Oct-20 @ 13:20 UTC (18 minutes ago) Visual Flight Rules
Wind Visibility Clouds
Variable at 3 knots 10,000+ meters
  • Clear skies
Temperatures Readings
Current 9°C / 48°F
Dewpoint 5°C / 41°F
Humidity 76%
Altimeter 30.18" Hg
Pressure 1022 hPa
Elevation 107
METAR ESOK 201320Z AUTO VRB03KT 9999 NCD 09/05 Q1022
Observed Flight Rules
Oct-20 @ 13:20 UTC
(18 minutes ago)
VFR
Wind Visibility
Variable at 3 knots 10,000+ meters
Clouds
  • Clear skies
Temperature Dewpoint
9°C / 48°F 5°C / 41°F
Humidity Altimeter Pressure
76% 30.18" Hg 1022 hPa